Cincinnati Northern Kentucky International Airport
KCVG : now visible

Airfield :











YOU CAN JOIN US ON...

 
LOGIN :

Register | Disclaimer

   EN    FR    IT 

 









Legend :    VFR   Marginal VFR   IFR   Intensive IFR   Very Intensive IFR
Visi :
Ceiling :
>= 8 km
>= 3000ft
5 to 8 km
1000 to 3000 ft
1500m to 5 km
500 to 1000 ft
800 to 1500m
200 to 500 ft
< 800m
< 200 ft
Symbols :   Thunderstorms  Fog  Heavy snow  Heavy precipitations  Wind > 20 kt







- Airport Elevation : 896 ft
- IATA code : CVG


KCVG - Cincinnati Northern Kentucky International

CURRENT METAR :
  • 210152Z 25011G17KT 10SM FEW009 OVC013 09/08 A2986 RMK AO2 SLP111 T00940078

EXPIRED METARs :
  • 210052Z 25011G17KT 7SM BKN006 OVC011 10/09 A2984 RMK AO2 DZE43 SLP106 P0001 T01000089
  • 210043Z 24009G17KT 6SM BR OVC006 10/09 A2984 RMK AO2 DZE43 P0001 T01000089
  • 202352Z 22009KT 1 1/2SM -DZ BR OVC005 10/09 A2981 RMK AO2 SFC VIS 2 RAE21DZB21 SLP097 P0004 60039 T01000089 10100 20067 53016
  • 202323Z 21008KT 2SM -DZ BR OVC005 09/08 A2979 RMK AO2 SFC VIS 6 RAE21DZB21 P0004 T00940083

TAF KCVG
Valid from the 21 at 00:00 until the 22 at 06:00 UTC


202339Z 2100/2206 21009KT 3SM -DZ BR OVC004 WS020/24040KT
FM210300 27010KT 3SM BR OVC007
FM210600 27010KT 3SM BR OVC012
FM211200 27007KT P6SM BKN015
FM211700 28008KT P6SM BKN090
FM220000 32003KT P6SM BKN120
KZID FIR / North America



MET'MAP, your aeronautical weather chart ! - Copyright ORBIFLY December 2007 - Disclaimer

ORBIFLY MET'MAP TEAM :

Programming & Development : Alexandra Zaïnal
Concept & Development : Baudouin d'Aumeries
Co-Development & Prog : Marc-Olivier Méhu
Technical & hardware support : Manuel Goepfert

Contact : metmap@orbifly.com




SOURCES & CREDITS :

   NOAA       Earth
Advisory